Time;durP1;ratioP1;P1;durP2;ratioP2;P2;SDS_P1;SDS_P2;PMS_P1;PMS_P2;Temp;Humidity;BMP_temperature;BMP_pressure;BME280_temperature;BME280_humidity;BME280_pressure;Samples;Min_cycle;Max_cycle;Signal;HPM_P1;HPM_P2
2022/03/31 00:00:33;;;;;;;26.73;8.57;;;;;;;;;;5094907;28;20440;-69
2022/03/31 00:03:02;;;;;;;28.25;9.70;;;;;;;;;;5094367;28;20205;-69
2022/03/31 00:05:30;;;;;;;26.88;8.48;;;;;;;;;;5094516;28;20653;-69
2022/03/31 00:07:59;;;;;;;29.20;9.63;;;;;;;;;;5094047;28;20229;-69
2022/03/31 00:10:28;;;;;;;27.37;8.80;;;;;;;;;;5094194;28;20449;-70
2022/03/31 00:12:56;;;;;;;32.20;9.20;;;;;;;;;;5094016;28;20525;-70
2022/03/31 00:15:24;;;;;;;31.27;9.53;;;;;;;;;;5093759;28;20454;-70
2022/03/31 00:17:51;;;;;;;27.17;8.35;;;;;;;;;;5093974;28;20446;-69
2022/03/31 00:20:38;;;;;;;35.08;10.30;;;;;;;;;;5094029;28;20231;-70
2022/03/31 00:23:24;;;;;;;28.17;8.10;;;;;;;;;;5093833;28;20208;-70
2022/03/31 00:26:13;;;;;;;24.95;8.23;;;;;;;;;;5093414;28;20240;-69
2022/03/31 00:28:59;;;;;;;26.80;7.57;;;;;;;;;;5093603;28;20658;-69
2022/03/31 00:31:45;;;;;;;22.67;6.72;;;;;;;;;;5093647;28;20847;-70
2022/03/31 00:34:14;;;;;;;32.80;8.68;;;;;;;;;;5093874;28;20664;-69
2022/03/31 00:36:52;;;;;;;21.90;6.70;;;;;;;;;;5093556;28;20208;-69
2022/03/31 00:42:02;;;;;;;26.00;5.83;;;;;;;;;;5091478;28;20210;-70
2022/03/31 00:44:29;;;;;;;30.07;6.70;;;;;;;;;;5093580;28;20443;-70
2022/03/31 00:46:57;;;;;;;18.50;5.18;;;;;;;;;;5093450;28;20924;-69
2022/03/31 00:49:27;;;;;;;24.23;5.85;;;;;;;;;;5092746;28;20242;-70
2022/03/31 00:51:56;;;;;;;24.00;7.13;;;;;;;;;;5086829;28;20204;-69
2022/03/31 00:54:25;;;;;;;22.07;5.70;;;;;;;;;;5093466;28;20216;-69
2022/03/31 00:56:53;;;;;;;26.83;5.10;;;;;;;;;;5093199;28;21026;-69
2022/03/31 00:59:20;;;;;;;31.40;6.75;;;;;;;;;;5093068;28;20446;-69
2022/03/31 01:01:48;;;;;;;17.83;5.03;;;;;;;;;;5093144;28;20206;-69
2022/03/31 01:04:16;;;;;;;24.57;6.33;;;;;;;;;;5093454;28;20536;-69
2022/03/31 01:06:45;;;;;;;21.10;6.33;;;;;;;;;;5092971;28;20442;-70
2022/03/31 01:09:14;;;;;;;27.93;6.20;;;;;;;;;;5092863;28;20498;-69
2022/03/31 01:11:42;;;;;;;25.70;5.93;;;;;;;;;;5092939;28;20447;-69
2022/03/31 01:14:09;;;;;;;21.15;5.32;;;;;;;;;;5092913;28;20834;-70
2022/03/31 01:16:37;;;;;;;24.00;6.30;;;;;;;;;;5086042;28;20206;-69
2022/03/31 01:19:06;;;;;;;20.10;7.00;;;;;;;;;;5092846;28;20532;-70
2022/03/31 01:21:37;;;;;;;23.67;6.17;;;;;;;;;;5092755;28;20831;-69
2022/03/31 01:24:07;;;;;;;24.50;6.40;;;;;;;;;;5092940;28;20459;-70
2022/03/31 01:26:35;;;;;;;23.20;6.10;;;;;;;;;;5092830;28;20453;-70
2022/03/31 01:29:03;;;;;;;21.47;6.27;;;;;;;;;;5092421;28;20482;-70
2022/03/31 01:31:30;;;;;;;22.20;6.30;;;;;;;;;;5092587;28;21080;-69
2022/03/31 01:33:58;;;;;;;29.50;7.10;;;;;;;;;;5092478;28;20451;-69
2022/03/31 01:36:25;;;;;;;25.43;6.77;;;;;;;;;;5092571;28;20448;-69
2022/03/31 01:38:53;;;;;;;19.45;6.13;;;;;;;;;;5091694;28;20450;-69
2022/03/31 01:41:22;;;;;;;35.38;8.60;;;;;;;;;;5091973;28;20204;-69
2022/03/31 01:43:50;;;;;;;18.87;6.20;;;;;;;;;;5112260;28;20207;-69
2022/03/31 01:46:17;;;;;;;19.87;5.83;;;;;;;;;;5112065;28;20437;-70
2022/03/31 01:48:45;;;;;;;21.33;6.72;;;;;;;;;;5111730;28;20504;-69
2022/03/31 01:51:14;;;;;;;27.77;6.78;;;;;;;;;;5111708;28;20204;-69
2022/03/31 01:53:42;;;;;;;23.27;6.50;;;;;;;;;;5111705;28;20211;-69
2022/03/31 01:56:09;;;;;;;19.50;5.85;;;;;;;;;;5111743;28;20208;-70
2022/03/31 01:58:38;;;;;;;20.75;6.55;;;;;;;;;;5102454;28;20286;-69
2022/03/31 02:01:06;;;;;;;23.50;6.18;;;;;;;;;;5092034;28;20294;-69
2022/03/31 02:03:34;;;;;;;30.57;6.83;;;;;;;;;;5092492;28;20226;-70
2022/03/31 02:06:02;;;;;;;25.67;5.97;;;;;;;;;;5092325;28;20511;-70
2022/03/31 02:08:30;;;;;;;32.53;6.65;;;;;;;;;;5091877;28;20214;-70
2022/03/31 02:10:57;;;;;;;27.35;6.00;;;;;;;;;;5085483;28;20216;-69
2022/03/31 02:13:25;;;;;;;21.80;7.65;;;;;;;;;;5092060;28;20200;-69
2022/03/31 02:15:54;;;;;;;27.97;5.30;;;;;;;;;;5092416;28;20208;-69
2022/03/31 02:18:23;;;;;;;19.27;4.93;;;;;;;;;;5092371;28;20436;-69
2022/03/31 02:20:50;;;;;;;21.00;5.50;;;;;;;;;;5092079;28;20447;-69
2022/03/31 02:23:17;;;;;;;30.77;6.72;;;;;;;;;;5091642;28;20853;-70
2022/03/31 02:25:45;;;;;;;24.75;5.38;;;;;;;;;;5092266;28;20204;-69
2022/03/31 02:28:13;;;;;;;22.15;4.75;;;;;;;;;;5092193;28;20211;-69
2022/03/31 02:30:41;;;;;;;24.42;5.38;;;;;;;;;;5092131;28;20289;-69
2022/03/31 02:33:10;;;;;;;18.43;4.80;;;;;;;;;;5091658;28;20216;-69
2022/03/31 02:35:39;;;;;;;20.63;5.03;;;;;;;;;;5091746;28;20510;-70
2022/03/31 02:38:06;;;;;;;24.10;4.97;;;;;;;;;;5084940;28;20222;-69
2022/03/31 02:40:33;;;;;;;21.13;5.00;;;;;;;;;;5091454;28;20459;-69
2022/03/31 02:43:01;;;;;;;25.17;5.90;;;;;;;;;;5091798;28;20942;-69
2022/03/31 02:45:28;;;;;;;28.40;6.80;;;;;;;;;;5091844;28;20443;-69
2022/03/31 02:47:56;;;;;;;23.83;4.80;;;;;;;;;;5091624;28;20491;-69
2022/03/31 02:50:25;;;;;;;26.07;4.90;;;;;;;;;;5094475;28;20988;-69
2022/03/31 02:55:39;;;;;;;26.60;6.07;;;;;;;;;;5095824;28;20441;-69
2022/03/31 02:58:06;;;;;;;22.03;5.50;;;;;;;;;;5095794;28;20801;-70
2022/03/31 03:00:35;;;;;;;20.67;5.13;;;;;;;;;;5095637;28;20804;-70
2022/03/31 03:03:03;;;;;;;23.37;6.10;;;;;;;;;;5095575;28;20454;-69
2022/03/31 03:05:32;;;;;;;22.77;7.27;;;;;;;;;;5095385;28;20534;-69
2022/03/31 03:08:00;;;;;;;21.20;6.03;;;;;;;;;;5095456;28;20447;-69
2022/03/31 03:10:27;;;;;;;21.00;5.90;;;;;;;;;;5095492;28;20611;-69
2022/03/31 03:12:57;;;;;;;19.25;5.13;;;;;;;;;;5088099;28;20204;-70
2022/03/31 03:15:26;;;;;;;19.17;4.60;;;;;;;;;;5095010;28;20216;-69
2022/03/31 03:17:54;;;;;;;24.40;5.65;;;;;;;;;;5095366;28;20464;-70
2022/03/31 03:20:24;;;;;;;20.42;5.00;;;;;;;;;;5095280;28;20204;-69
2022/03/31 03:22:54;;;;;;;23.53;5.37;;;;;;;;;;5095281;28;20240;-70
2022/03/31 03:25:23;;;;;;;30.33;6.47;;;;;;;;;;5094902;28;20446;-69
2022/03/31 03:27:51;;;;;;;22.85;5.40;;;;;;;;;;5094937;28;20450;-70
2022/03/31 03:30:20;;;;;;;26.47;5.70;;;;;;;;;;5095083;28;20353;-69
2022/03/31 03:32:48;;;;;;;20.30;5.88;;;;;;;;;;5095051;28;20437;-69
2022/03/31 03:35:16;;;;;;;26.90;6.43;;;;;;;;;;5094750;28;20210;-70
2022/03/31 03:37:45;;;;;;;27.27;7.83;;;;;;;;;;5095144;28;20206;-69
2022/03/31 03:40:15;;;;;;;23.97;6.63;;;;;;;;;;5094219;28;20468;-69
2022/03/31 03:42:42;;;;;;;23.90;6.45;;;;;;;;;;5094750;28;20451;-69
2022/03/31 03:45:11;;;;;;;26.77;7.22;;;;;;;;;;5087782;28;20199;-70
2022/03/31 03:47:38;;;;;;;25.30;6.10;;;;;;;;;;5094299;28;20273;-69
2022/03/31 03:50:06;;;;;;;23.67;5.65;;;;;;;;;;5094754;28;20861;-70
2022/03/31 03:52:34;;;;;;;20.07;5.43;;;;;;;;;;5094588;28;20205;-70
2022/03/31 03:55:01;;;;;;;26.23;6.13;;;;;;;;;;5094398;28;20453;-69
2022/03/31 03:57:30;;;;;;;22.30;5.63;;;;;;;;;;5094578;28;20491;-69
2022/03/31 03:59:59;;;;;;;18.98;5.38;;;;;;;;;;5094407;28;20836;-69
2022/03/31 04:02:27;;;;;;;23.00;5.38;;;;;;;;;;5093633;28;20213;-70
2022/03/31 04:04:54;;;;;;;24.30;5.90;;;;;;;;;;5094340;28;20771;-69
2022/03/31 04:07:22;;;;;;;28.60;6.05;;;;;;;;;;5094055;28;20243;-70
2022/03/31 04:09:49;;;;;;;25.33;5.93;;;;;;;;;;5114230;28;20231;-69
2022/03/31 04:12:17;;;;;;;19.60;4.53;;;;;;;;;;5113796;28;20211;-69
2022/03/31 04:14:46;;;;;;;28.42;5.45;;;;;;;;;;5113547;28;20441;-69
2022/03/31 04:17:14;;;;;;;25.10;6.63;;;;;;;;;;5113307;28;20660;-69
2022/03/31 04:19:42;;;;;;;27.73;6.03;;;;;;;;;;5113335;28;20464;-70
2022/03/31 04:22:10;;;;;;;19.85;5.13;;;;;;;;;;5113378;28;20455;-69
2022/03/31 04:24:37;;;;;;;21.45;5.72;;;;;;;;;;5113304;28;20751;-70
2022/03/31 04:27:05;;;;;;;23.73;5.80;;;;;;;;;;5113446;28;20215;-70
2022/03/31 04:29:32;;;;;;;19.10;4.43;;;;;;;;;;5113430;28;20478;-70
2022/03/31 04:32:01;;;;;;;19.23;4.50;;;;;;;;;;5113415;28;20455;-70
2022/03/31 04:34:29;;;;;;;19.97;5.27;;;;;;;;;;5086590;28;20451;-69
2022/03/31 04:36:57;;;;;;;24.13;4.80;;;;;;;;;;5093593;28;20450;-69
2022/03/31 04:39:24;;;;;;;25.00;4.43;;;;;;;;;;5092984;28;20467;-69
2022/03/31 04:41:51;;;;;;;24.93;4.50;;;;;;;;;;5093609;28;20443;-69
2022/03/31 04:44:19;;;;;;;21.03;4.30;;;;;;;;;;5093513;28;20450;-70
2022/03/31 04:46:46;;;;;;;26.77;5.50;;;;;;;;;;5093262;28;20970;-70
2022/03/31 04:49:15;;;;;;;26.27;6.50;;;;;;;;;;5093341;28;20477;-69
2022/03/31 04:51:44;;;;;;;23.87;5.30;;;;;;;;;;5093470;28;20969;-69
2022/03/31 04:54:11;;;;;;;20.97;5.20;;;;;;;;;;5093603;28;20453;-69
2022/03/31 04:56:39;;;;;;;27.00;5.10;;;;;;;;;;5086805;28;20459;-69
2022/03/31 04:59:06;;;;;;;24.30;5.77;;;;;;;;;;5093213;28;20448;-70
2022/03/31 05:01:34;;;;;;;19.97;5.00;;;;;;;;;;5093308;28;20836;-70
2022/03/31 05:04:01;;;;;;;18.70;4.80;;;;;;;;;;5093481;28;20463;-70
2022/03/31 05:06:30;;;;;;;26.03;5.83;;;;;;;;;;5093289;28;20445;-70
2022/03/31 05:08:58;;;;;;;26.50;4.90;;;;;;;;;;5093137;28;20450;-70
2022/03/31 05:11:25;;;;;;;23.73;5.67;;;;;;;;;;5092675;28;20567;-69
2022/03/31 05:13:53;;;;;;;21.80;5.67;;;;;;;;;;5092897;28;20450;-70
2022/03/31 05:16:20;;;;;;;23.00;5.37;;;;;;;;;;5092784;28;20450;-70
2022/03/31 05:18:48;;;;;;;21.27;4.93;;;;;;;;;;5093064;28;20450;-69
2022/03/31 05:21:15;;;;;;;29.33;6.23;;;;;;;;;;5092888;28;20549;-70
2022/03/31 05:23:44;;;;;;;21.97;7.83;;;;;;;;;;5092956;28;20450;-70
2022/03/31 05:26:12;;;;;;;21.60;6.17;;;;;;;;;;5092835;28;20829;-70
2022/03/31 05:28:39;;;;;;;22.33;5.07;;;;;;;;;;5092766;28;20453;-70
2022/03/31 05:31:07;;;;;;;26.93;5.10;;;;;;;;;;5092635;28;20489;-71
2022/03/31 05:33:35;;;;;;;27.70;4.57;;;;;;;;;;5092983;28;20450;-70
2022/03/31 05:36:02;;;;;;;25.10;5.97;;;;;;;;;;5092676;28;20481;-70
2022/03/31 05:38:29;;;;;;;23.43;5.37;;;;;;;;;;5092748;28;20454;-72
2022/03/31 05:40:58;;;;;;;20.47;4.63;;;;;;;;;;5092054;28;20469;-72
2022/03/31 05:43:27;;;;;;;28.83;5.10;;;;;;;;;;5111969;28;20445;-72
2022/03/31 05:45:55;;;;;;;22.77;5.27;;;;;;;;;;5112190;28;20449;-72
2022/03/31 05:48:22;;;;;;;25.30;5.07;;;;;;;;;;5111629;28;20481;-70
2022/03/31 05:50:49;;;;;;;18.93;4.90;;;;;;;;;;5111711;28;20502;-70
2022/03/31 05:53:17;;;;;;;27.90;7.20;;;;;;;;;;5111613;28;20449;-70
2022/03/31 05:55:45;;;;;;;27.27;5.90;;;;;;;;;;5111702;28;20459;-70
2022/03/31 05:58:14;;;;;;;30.80;5.17;;;;;;;;;;5103985;28;20438;-70
2022/03/31 06:00:42;;;;;;;25.20;5.53;;;;;;;;;;5092809;28;20454;-70
2022/03/31 06:03:09;;;;;;;26.70;6.87;;;;;;;;;;5092105;28;20446;-70
2022/03/31 06:05:37;;;;;;;19.27;5.23;;;;;;;;;;5098576;28;20954;-70
2022/03/31 06:08:04;;;;;;;22.53;5.83;;;;;;;;;;5111654;28;20988;-70
2022/03/31 06:10:32;;;;;;;26.90;5.90;;;;;;;;;;5111657;28;20480;-70
2022/03/31 06:12:59;;;;;;;21.00;4.43;;;;;;;;;;5111481;28;20942;-70
2022/03/31 06:15:28;;;;;;;24.97;5.40;;;;;;;;;;5111319;28;20445;-70
2022/03/31 06:17:57;;;;;;;20.03;5.10;;;;;;;;;;5111518;28;20452;-70
2022/03/31 06:20:24;;;;;;;23.17;4.70;;;;;;;;;;5111568;28;20452;-70
2022/03/31 06:22:52;;;;;;;24.23;5.23;;;;;;;;;;5111577;28;20445;-70
2022/03/31 06:25:20;;;;;;;25.00;5.80;;;;;;;;;;5113972;28;20446;-70
2022/03/31 06:27:48;;;;;;;26.63;5.33;;;;;;;;;;5115869;28;20456;-70
2022/03/31 06:30:16;;;;;;;25.67;5.30;;;;;;;;;;5115721;28;20484;-70
2022/03/31 06:32:44;;;;;;;23.73;4.87;;;;;;;;;;5115698;28;20452;-70
2022/03/31 06:35:14;;;;;;;27.90;5.70;;;;;;;;;;5115372;28;20456;-70
2022/03/31 06:37:42;;;;;;;28.70;4.60;;;;;;;;;;5115434;28;20441;-70
2022/03/31 06:40:12;;;;;;;20.73;7.20;;;;;;;;;;5115237;28;20495;-70
2022/03/31 06:42:40;;;;;;;27.47;5.60;;;;;;;;;;5115580;28;20492;-70
2022/03/31 06:45:12;;;;;;;27.50;4.77;;;;;;;;;;5115461;28;20822;-70
2022/03/31 06:47:39;;;;;;;22.57;4.60;;;;;;;;;;5115459;28;20468;-69
2022/03/31 06:50:09;;;;;;;26.20;5.70;;;;;;;;;;5115367;28;20565;-70
2022/03/31 06:52:37;;;;;;;19.87;5.33;;;;;;;;;;5115238;28;20448;-70
2022/03/31 06:55:04;;;;;;;21.00;4.37;;;;;;;;;;5115436;28;20532;-70
2022/03/31 06:57:32;;;;;;;21.77;4.30;;;;;;;;;;5115544;28;20513;-70
2022/03/31 06:59:59;;;;;;;22.13;4.47;;;;;;;;;;5115040;28;20463;-70
2022/03/31 07:02:26;;;;;;;25.00;5.17;;;;;;;;;;5114966;28;20441;-70
2022/03/31 07:04:54;;;;;;;23.17;5.40;;;;;;;;;;5114857;28;20451;-70
2022/03/31 07:07:24;;;;;;;23.10;4.93;;;;;;;;;;5114664;28;20977;-70
2022/03/31 07:09:52;;;;;;;26.27;4.80;;;;;;;;;;5115243;28;20441;-70
2022/03/31 07:12:19;;;;;;;26.93;4.87;;;;;;;;;;5114988;28;20453;-70
2022/03/31 07:14:47;;;;;;;18.80;4.10;;;;;;;;;;5114586;28;20532;-70
2022/03/31 07:17:14;;;;;;;26.70;6.70;;;;;;;;;;5114428;28;20444;-71
2022/03/31 07:19:42;;;;;;;31.87;6.07;;;;;;;;;;5114916;28;20449;-70
2022/03/31 07:22:09;;;;;;;29.70;5.60;;;;;;;;;;5114885;28;20814;-70
2022/03/31 07:24:38;;;;;;;35.70;4.90;;;;;;;;;;5114890;28;20985;-70
2022/03/31 07:27:06;;;;;;;16.67;3.93;;;;;;;;;;5114431;28;20452;-70
2022/03/31 07:29:33;;;;;;;20.00;4.03;;;;;;;;;;5114304;28;20942;-70
2022/03/31 07:32:01;;;;;;;28.83;4.90;;;;;;;;;;5114282;28;21050;-70
2022/03/31 07:34:28;;;;;;;19.10;4.70;;;;;;;;;;5114495;28;20465;-70
2022/03/31 07:36:56;;;;;;;32.97;4.17;;;;;;;;;;5113024;28;20445;-70
2022/03/31 07:39:23;;;;;;;21.90;4.37;;;;;;;;;;5113746;28;20537;-70
2022/03/31 07:41:52;;;;;;;19.27;3.60;;;;;;;;;;5114551;28;20445;-70
2022/03/31 07:44:20;;;;;;;25.23;4.90;;;;;;;;;;5087963;28;20453;-70
2022/03/31 07:46:51;;;;;;;25.17;4.37;;;;;;;;;;5094743;28;20826;-70
2022/03/31 07:49:19;;;;;;;24.13;4.90;;;;;;;;;;5094630;28;20479;-70
2022/03/31 07:51:46;;;;;;;18.97;4.50;;;;;;;;;;5094652;28;20486;-70
2022/03/31 07:54:14;;;;;;;21.80;4.10;;;;;;;;;;5094471;28;20443;-71
2022/03/31 07:56:41;;;;;;;26.03;4.60;;;;;;;;;;5094716;28;20467;-70
2022/03/31 07:59:10;;;;;;;22.73;4.77;;;;;;;;;;5094176;28;20534;-70
2022/03/31 08:01:38;;;;;;;33.93;6.43;;;;;;;;;;5094517;28;20459;-70
2022/03/31 08:04:06;;;;;;;24.43;5.73;;;;;;;;;;5094376;28;20824;-71
2022/03/31 08:06:34;;;;;;;42.63;6.27;;;;;;;;;;5094403;28;20533;-70
2022/03/31 08:09:01;;;;;;;30.37;4.53;;;;;;;;;;5087185;28;20970;-71
2022/03/31 08:11:29;;;;;;;20.33;3.70;;;;;;;;;;5094336;28;20479;-70
2022/03/31 08:13:57;;;;;;;31.90;5.20;;;;;;;;;;5094345;28;20524;-70
2022/03/31 08:16:26;;;;;;;24.13;4.30;;;;;;;;;;5094279;28;20529;-70
2022/03/31 08:18:54;;;;;;;25.13;4.57;;;;;;;;;;5094294;28;20446;-72
2022/03/31 08:21:22;;;;;;;26.27;7.17;;;;;;;;;;5093862;28;20993;-73
2022/03/31 08:23:49;;;;;;;28.13;4.60;;;;;;;;;;5093938;28;20959;-73
2022/03/31 08:26:16;;;;;;;21.90;4.93;;;;;;;;;;5093953;28;20472;-73
2022/03/31 08:28:44;;;;;;;28.33;4.83;;;;;;;;;;5093934;28;20822;-73
2022/03/31 08:31:11;;;;;;;24.40;4.80;;;;;;;;;;5093495;28;20570;-73
2022/03/31 08:33:42;;;;;;;20.23;4.43;;;;;;;;;;5093840;28;20845;-70
2022/03/31 08:36:11;;;;;;;30.97;4.63;;;;;;;;;;5093970;28;20454;-70
2022/03/31 08:38:38;;;;;;;26.13;4.63;;;;;;;;;;5093980;28;20527;-70
2022/03/31 08:41:05;;;;;;;25.30;5.57;;;;;;;;;;5092890;28;20486;-70
2022/03/31 08:43:34;;;;;;;19.93;3.90;;;;;;;;;;5093491;28;20451;-70
2022/03/31 08:46:01;;;;;;;23.30;5.13;;;;;;;;;;5093546;28;20467;-70
2022/03/31 08:48:29;;;;;;;28.60;4.40;;;;;;;;;;5093112;28;20611;-70
2022/03/31 08:50:57;;;;;;;24.83;5.13;;;;;;;;;;5093291;28;20519;-70
2022/03/31 08:53:26;;;;;;;24.23;5.30;;;;;;;;;;5093435;28;20457;-70
2022/03/31 08:55:54;;;;;;;18.10;4.03;;;;;;;;;;5093590;28;20436;-70
2022/03/31 08:58:21;;;;;;;24.70;5.40;;;;;;;;;;5112951;28;20446;-70
2022/03/31 09:00:48;;;;;;;28.20;4.60;;;;;;;;;;5112789;28;20463;-70
2022/03/31 09:03:16;;;;;;;29.97;5.77;;;;;;;;;;5112314;28;20450;-70
2022/03/31 09:05:45;;;;;;;26.27;4.90;;;;;;;;;;5113205;28;20854;-70
2022/03/31 09:08:16;;;;;;;25.47;6.07;;;;;;;;;;5112840;28;20431;-70
2022/03/31 09:10:47;;;;;;;22.43;5.10;;;;;;;;;;5112509;28;20441;-70
2022/03/31 09:13:22;;;;;;;30.13;6.40;;;;;;;;;;5112408;28;21022;-70
2022/03/31 09:15:50;;;;;;;26.67;4.83;;;;;;;;;;5112255;28;20463;-70
2022/03/31 09:18:19;;;;;;;22.73;5.20;;;;;;;;;;5112377;28;20490;-70
2022/03/31 09:20:46;;;;;;;24.20;5.30;;;;;;;;;;5112635;28;20452;-70
2022/03/31 09:23:19;;;;;;;29.40;6.10;;;;;;;;;;5111932;28;20822;-70
2022/03/31 09:25:48;;;;;;;26.40;5.23;;;;;;;;;;5112386;28;20445;-70
2022/03/31 09:28:16;;;;;;;24.47;5.67;;;;;;;;;;5112312;28;20452;-70
2022/03/31 09:30:47;;;;;;;32.63;5.30;;;;;;;;;;5112202;28;20448;-70
2022/03/31 09:33:26;;;;;;;31.77;5.67;;;;;;;;;;5112134;28;20473;-70
2022/03/31 09:35:57;;;;;;;30.70;5.00;;;;;;;;;;5112335;28;21015;-70
2022/03/31 09:38:26;;;;;;;23.63;5.63;;;;;;;;;;5112350;28;20450;-71
2022/03/31 09:40:54;;;;;;;22.53;4.97;;;;;;;;;;5111782;28;20469;-70
2022/03/31 09:43:22;;;;;;;30.10;5.67;;;;;;;;;;5111690;28;20454;-70
2022/03/31 09:45:49;;;;;;;21.10;5.23;;;;;;;;;;5112065;28;20454;-70
2022/03/31 09:48:21;;;;;;;25.07;5.20;;;;;;;;;;5111980;28;20483;-70
2022/03/31 09:50:49;;;;;;;22.60;4.17;;;;;;;;;;5111762;28;20476;-70
2022/03/31 09:53:17;;;;;;;38.10;5.47;;;;;;;;;;5111456;28;20867;-70
2022/03/31 09:55:46;;;;;;;24.10;4.80;;;;;;;;;;5112006;28;20830;-72
2022/03/31 09:58:15;;;;;;;27.10;5.70;;;;;;;;;;5111562;28;20448;-72
2022/03/31 10:00:43;;;;;;;22.87;4.47;;;;;;;;;;5111393;28;20498;-72
2022/03/31 10:03:15;;;;;;;28.70;4.77;;;;;;;;;;5111584;28;21033;-72
2022/03/31 10:05:45;;;;;;;24.63;4.77;;;;;;;;;;5085964;28;20464;-70
2022/03/31 10:08:13;;;;;;;21.33;4.67;;;;;;;;;;5111876;28;20445;-70
2022/03/31 10:10:40;;;;;;;29.10;4.97;;;;;;;;;;5111732;28;20458;-70
2022/03/31 10:13:15;;;;;;;33.20;5.50;;;;;;;;;;5111229;28;20481;-70
2022/03/31 10:15:44;;;;;;;34.73;5.20;;;;;;;;;;5111661;28;20506;-70
2022/03/31 10:18:14;;;;;;;27.57;4.80;;;;;;;;;;5111486;28;20987;-70
2022/03/31 10:20:41;;;;;;;30.57;5.37;;;;;;;;;;5111495;28;20442;-70
2022/03/31 10:25:56;;;;;;;29.10;5.30;;;;;;;;;;5111647;28;20952;-70
2022/03/31 10:28:24;;;;;;;26.23;5.47;;;;;;;;;;5111506;28;20451;-70
2022/03/31 10:30:57;;;;;;;31.60;6.03;;;;;;;;;;5111300;28;20455;-70
2022/03/31 10:33:34;;;;;;;29.03;5.33;;;;;;;;;;5111414;28;20816;-70
2022/03/31 10:36:03;;;;;;;28.43;5.50;;;;;;;;;;5111535;28;20446;-72
2022/03/31 10:38:33;;;;;;;31.90;5.43;;;;;;;;;;5111345;28;20450;-72
2022/03/31 10:41:05;;;;;;;30.10;5.30;;;;;;;;;;5111217;28;20498;-72
2022/03/31 10:43:34;;;;;;;37.90;7.00;;;;;;;;;;5111599;28;20449;-72
2022/03/31 10:46:04;;;;;;;32.07;6.33;;;;;;;;;;5111103;28;20455;-72
2022/03/31 10:48:32;;;;;;;26.47;6.60;;;;;;;;;;5111064;28;20526;-72
2022/03/31 10:51:04;;;;;;;28.73;5.50;;;;;;;;;;5111471;28;20532;-72
2022/03/31 10:53:32;;;;;;;34.90;6.47;;;;;;;;;;5111191;28;20455;-72
2022/03/31 10:56:00;;;;;;;29.60;6.23;;;;;;;;;;5111198;28;21048;-72
2022/03/31 10:58:29;;;;;;;31.40;7.33;;;;;;;;;;5111546;28;20439;-72
2022/03/31 11:01:00;;;;;;;21.47;4.90;;;;;;;;;;5111218;28;20505;-72
2022/03/31 11:03:28;;;;;;;27.43;6.13;;;;;;;;;;5111224;28;20475;-72
2022/03/31 11:05:59;;;;;;;32.50;7.23;;;;;;;;;;5111028;28;20844;-72
2022/03/31 11:08:26;;;;;;;22.97;4.93;;;;;;;;;;5111633;28;20445;-72
2022/03/31 11:10:54;;;;;;;24.90;5.27;;;;;;;;;;5113027;28;20442;-72
2022/03/31 11:13:32;;;;;;;28.57;4.20;;;;;;;;;;5114630;28;20483;-72
2022/03/31 11:16:01;;;;;;;39.10;5.10;;;;;;;;;;5114903;28;20440;-72
2022/03/31 11:18:29;;;;;;;34.20;5.07;;;;;;;;;;5114540;28;20447;-72
2022/03/31 11:20:57;;;;;;;30.80;5.90;;;;;;;;;;5114620;28;20436;-72
2022/03/31 11:23:25;;;;;;;25.23;6.03;;;;;;;;;;5114313;28;20456;-72
2022/03/31 11:25:53;;;;;;;26.83;5.70;;;;;;;;;;5114606;28;20451;-72
2022/03/31 11:28:21;;;;;;;27.10;5.10;;;;;;;;;;5114317;28;20843;-72
2022/03/31 11:30:49;;;;;;;32.43;6.27;;;;;;;;;;5114853;28;20528;-72
2022/03/31 11:33:18;;;;;;;29.67;6.47;;;;;;;;;;5114015;28;20529;-72
2022/03/31 11:35:52;;;;;;;25.50;6.03;;;;;;;;;;5114468;28;20441;-72
2022/03/31 11:38:19;;;;;;;36.87;6.43;;;;;;;;;;5114268;28;20836;-72
2022/03/31 11:40:47;;;;;;;30.90;5.47;;;;;;;;;;5113995;28;20471;-72
2022/03/31 11:43:15;;;;;;;31.63;6.43;;;;;;;;;;5113977;28;20958;-72
2022/03/31 11:45:45;;;;;;;29.63;7.13;;;;;;;;;;5114076;28;20452;-72
2022/03/31 11:48:13;;;;;;;23.50;5.50;;;;;;;;;;5114591;28;20561;-72
2022/03/31 11:50:50;;;;;;;18.77;4.53;;;;;;;;;;5114031;28;20452;-72
2022/03/31 11:53:20;;;;;;;30.90;6.83;;;;;;;;;;5113813;28;20480;-72
2022/03/31 11:56:05;;;;;;;37.37;4.90;;;;;;;;;;5113914;28;20448;-72
2022/03/31 11:58:35;;;;;;;29.33;6.20;;;;;;;;;;5114135;28;20454;-70
2022/03/31 12:01:02;;;;;;;21.97;4.90;;;;;;;;;;5113918;28;20445;-72
2022/03/31 12:03:35;;;;;;;28.03;5.93;;;;;;;;;;5114082;28;20535;-72
2022/03/31 12:06:05;;;;;;;26.43;6.40;;;;;;;;;;5113966;28;20445;-72
2022/03/31 12:08:33;;;;;;;28.07;5.57;;;;;;;;;;5113667;28;20941;-72
2022/03/31 12:11:01;;;;;;;23.33;4.50;;;;;;;;;;5113926;28;20453;-72
2022/03/31 12:13:29;;;;;;;32.53;5.50;;;;;;;;;;5113614;28;20487;-72
2022/03/31 12:16:03;;;;;;;29.10;5.43;;;;;;;;;;5113959;28;20496;-72
2022/03/31 12:18:33;;;;;;;22.57;5.20;;;;;;;;;;5114146;28;20960;-72
2022/03/31 12:21:02;;;;;;;21.30;4.33;;;;;;;;;;5087398;28;20446;-72
2022/03/31 12:23:30;;;;;;;27.57;5.70;;;;;;;;;;5093486;28;20461;-72
2022/03/31 12:25:59;;;;;;;32.93;5.73;;;;;;;;;;5093950;28;20445;-72
2022/03/31 12:28:27;;;;;;;21.83;5.77;;;;;;;;;;5093875;28;20450;-72
2022/03/31 12:30:56;;;;;;;20.67;4.97;;;;;;;;;;5093767;28;20461;-72
2022/03/31 12:33:24;;;;;;;24.73;5.03;;;;;;;;;;5093764;28;21001;-72
2022/03/31 12:35:55;;;;;;;29.27;5.77;;;;;;;;;;5093969;28;20446;-72
2022/03/31 12:38:33;;;;;;;22.93;4.97;;;;;;;;;;5094129;28;20836;-72
2022/03/31 12:41:02;;;;;;;38.50;6.50;;;;;;;;;;5093350;28;20483;-72
2022/03/31 12:43:29;;;;;;;32.37;5.03;;;;;;;;;;5093594;28;20458;-72
2022/03/31 12:45:57;;;;;;;27.03;5.10;;;;;;;;;;5093494;28;20442;-72
2022/03/31 12:48:26;;;;;;;18.90;3.90;;;;;;;;;;5093407;28;20485;-72
2022/03/31 12:51:02;;;;;;;24.70;4.70;;;;;;;;;;5093489;28;20519;-72
2022/03/31 12:53:39;;;;;;;27.13;4.93;;;;;;;;;;5093235;28;20481;-72
2022/03/31 12:56:10;;;;;;;30.87;7.23;;;;;;;;;;5093565;28;20502;-72
2022/03/31 12:58:38;;;;;;;32.73;6.10;;;;;;;;;;5093142;28;20461;-72
2022/03/31 13:01:05;;;;;;;31.13;6.47;;;;;;;;;;5093000;28;20445;-72
2022/03/31 13:03:32;;;;;;;27.80;6.00;;;;;;;;;;5113074;28;20849;-72
2022/03/31 13:06:01;;;;;;;40.67;7.10;;;;;;;;;;5112737;28;20506;-72
2022/03/31 13:08:29;;;;;;;35.07;8.07;;;;;;;;;;5112616;28;20445;-72
2022/03/31 13:10:58;;;;;;;34.30;6.67;;;;;;;;;;5112984;28;20995;-72
2022/03/31 13:13:28;;;;;;;38.53;6.40;;;;;;;;;;5112252;28;20482;-72
2022/03/31 13:15:55;;;;;;;26.17;6.23;;;;;;;;;;5112346;28;20839;-72
2022/03/31 13:18:23;;;;;;;29.63;6.27;;;;;;;;;;5112739;28;20440;-72
2022/03/31 13:20:50;;;;;;;32.93;6.93;;;;;;;;;;5112723;28;20433;-72
2022/03/31 13:23:18;;;;;;;33.40;7.43;;;;;;;;;;5112048;28;20453;-72
2022/03/31 13:25:46;;;;;;;32.83;5.43;;;;;;;;;;5112434;28;20525;-72
2022/03/31 13:28:13;;;;;;;30.23;7.07;;;;;;;;;;5085766;28;20443;-72
2022/03/31 13:30:43;;;;;;;31.53;6.37;;;;;;;;;;5092924;28;20450;-72
2022/03/31 13:33:11;;;;;;;28.40;5.63;;;;;;;;;;5091997;28;20478;-72
2022/03/31 13:35:38;;;;;;;29.33;7.47;;;;;;;;;;5092352;28;20538;-72
2022/03/31 13:38:05;;;;;;;32.47;7.33;;;;;;;;;;5092457;28;20450;-71
2022/03/31 13:40:37;;;;;;;26.03;6.20;;;;;;;;;;5092341;28;20461;-70
2022/03/31 13:43:06;;;;;;;29.57;6.60;;;;;;;;;;5092309;28;20449;-71
2022/03/31 13:45:34;;;;;;;29.93;6.60;;;;;;;;;;5092385;28;21100;-70
2022/03/31 13:48:03;;;;;;;35.47;6.80;;;;;;;;;;5092791;28;20904;-70
2022/03/31 13:50:31;;;;;;;30.83;6.17;;;;;;;;;;5092411;28;20946;-70
2022/03/31 13:55:43;;;;;;;35.60;6.30;;;;;;;;;;5092629;28;20424;-70
2022/03/31 14:01:11;;;;;;;29.30;5.67;;;;;;;;;;5092410;28;20984;-70
2022/03/31 14:03:43;;;;;;;34.37;5.13;;;;;;;;;;5092512;28;20519;-70
2022/03/31 14:06:10;;;;;;;31.50;6.37;;;;;;;;;;5092222;28;20450;-70
2022/03/31 14:08:38;;;;;;;28.37;5.13;;;;;;;;;;5092376;28;20529;-70
2022/03/31 14:11:06;;;;;;;30.77;5.53;;;;;;;;;;5091935;28;20446;-70
2022/03/31 14:13:34;;;;;;;35.50;6.10;;;;;;;;;;5091987;28;20503;-70
2022/03/31 14:16:02;;;;;;;34.83;6.90;;;;;;;;;;5092035;28;21026;-70
2022/03/31 14:18:30;;;;;;;30.03;6.27;;;;;;;;;;5092454;28;20437;-70
2022/03/31 14:21:00;;;;;;;32.77;6.90;;;;;;;;;;5111377;28;20436;-70
2022/03/31 14:23:28;;;;;;;40.20;6.23;;;;;;;;;;5111191;28;20464;-70
2022/03/31 14:25:58;;;;;;;34.60;7.10;;;;;;;;;;5111380;28;20441;-70
2022/03/31 14:28:26;;;;;;;30.17;5.50;;;;;;;;;;5111330;28;20505;-70
2022/03/31 14:30:54;;;;;;;35.73;6.30;;;;;;;;;;5111428;28;20451;-70
2022/03/31 14:33:21;;;;;;;42.53;7.97;;;;;;;;;;5111046;28;20483;-70
2022/03/31 14:35:49;;;;;;;40.97;7.10;;;;;;;;;;5111627;28;20820;-70
2022/03/31 14:38:19;;;;;;;46.63;6.70;;;;;;;;;;5111488;28;20439;-70
2022/03/31 14:40:48;;;;;;;32.03;8.33;;;;;;;;;;5110787;28;20922;-70
2022/03/31 14:43:15;;;;;;;46.37;8.00;;;;;;;;;;5111008;28;20965;-70
2022/03/31 14:45:43;;;;;;;30.80;7.90;;;;;;;;;;5113489;28;20443;-70
2022/03/31 14:48:11;;;;;;;35.63;7.47;;;;;;;;;;5115320;28;20480;-70
2022/03/31 14:50:41;;;;;;;36.47;7.10;;;;;;;;;;5115230;28;20542;-70
2022/03/31 14:53:08;;;;;;;44.27;7.07;;;;;;;;;;5114922;28;20490;-70